createdAt,value
2023-02-17T00:00:40.836Z,101652.91
2023-02-17T00:03:43.231Z,101642.13
2023-02-17T00:06:45.237Z,101656.03
2023-02-17T00:09:47.259Z,101640.63
2023-02-17T00:12:49.938Z,101651.66
2023-02-17T00:15:52.033Z,101651.06
2023-02-17T00:18:57.319Z,101650.03
2023-02-17T00:22:01.559Z,101655.66
2023-02-17T00:25:03.922Z,101649.91
2023-02-17T00:28:06.035Z,101652.19
2023-02-17T00:31:10.608Z,101649.78
2023-02-17T00:34:13.120Z,101635.63
2023-02-17T00:37:16.256Z,101649.63
2023-02-17T00:40:18.500Z,101653.25
2023-02-17T00:43:20.492Z,101636.22
2023-02-17T00:46:22.972Z,101637.59
2023-02-17T00:49:27.544Z,101642.03
2023-02-17T00:52:29.490Z,101633.22
2023-02-17T00:55:31.544Z,101634.56
2023-02-17T00:58:33.826Z,101632.09
2023-02-17T01:01:37.502Z,101643.13
2023-02-17T01:04:40.800Z,101630.53
2023-02-17T01:07:44.550Z,101628.03
2023-02-17T01:10:49.296Z,101637.78
2023-02-17T01:13:51.965Z,101639.66
2023-02-17T01:16:54.714Z,101637.09
2023-02-17T01:19:57.529Z,101635.66
2023-02-17T01:22:59.611Z,101628.84
2023-02-17T01:26:01.761Z,101629.03
2023-02-17T01:29:05.289Z,101636.34
2023-02-17T01:32:07.296Z,101625.47
2023-02-17T01:35:09.924Z,101639.47
2023-02-17T01:38:11.946Z,101624.00
2023-02-17T01:41:16.543Z,101622.84
2023-02-17T01:44:25.076Z,101629.94
2023-02-17T01:47:27.529Z,101612.44
2023-02-17T01:50:36.412Z,101619.16
2023-02-17T01:53:48.667Z,101601.13
2023-02-17T01:56:51.646Z,101602.00
2023-02-17T01:59:57.067Z,101605.72
2023-02-17T02:03:02.656Z,101599.97
2023-02-17T02:06:11.799Z,101601.06
2023-02-17T02:09:20.489Z,101606.16
2023-02-17T02:12:26.959Z,101603.47
2023-02-17T02:15:35.521Z,101606.56
2023-02-17T02:18:46.418Z,101607.59
2023-02-17T02:22:06.893Z,101602.84
2023-02-17T02:25:22.250Z,101599.28
2023-02-17T02:29:01.452Z,101605.56
2023-02-17T02:32:18.411Z,101597.72
2023-02-17T02:35:34.508Z,101592.31
2023-02-17T02:38:53.186Z,101592.72
2023-02-17T02:42:03.142Z,101589.78
2023-02-17T02:45:09.047Z,101558.25
2023-02-17T02:48:11.364Z,101584.75
2023-02-17T02:51:28.440Z,101595.81
2023-02-17T02:54:59.589Z,101585.72
2023-02-17T02:58:14.707Z,101596.91
2023-02-17T03:01:22.805Z,101600.72
2023-02-17T03:04:36.286Z,101599.28
2023-02-17T03:08:12.221Z,101594.97
2023-02-17T03:11:32.387Z,101589.94
2023-02-17T03:14:38.781Z,101575.22
2023-02-17T03:17:43.264Z,101595.41
2023-02-17T03:20:56.673Z,101597.84
2023-02-17T03:24:00.474Z,101599.31
2023-02-17T03:27:03.732Z,101589.03
2023-02-17T03:30:06.913Z,101586.22
2023-02-17T03:33:09.351Z,101597.00
2023-02-17T03:36:11.419Z,101600.38
2023-02-17T03:39:13.527Z,101584.81
2023-02-17T03:42:15.900Z,101596.84
2023-02-17T03:45:18.170Z,101592.22
2023-02-17T03:48:20.185Z,101600.38
2023-02-17T03:51:23.954Z,101606.31
2023-02-17T03:54:26.971Z,101605.41
2023-02-17T03:57:29.033Z,101606.88
2023-02-17T04:00:31.310Z,101616.34
2023-02-17T04:03:34.318Z,101596.78
2023-02-17T04:06:36.879Z,101602.31
2023-02-17T04:09:38.977Z,101591.09
2023-02-17T04:12:41.193Z,101579.47
2023-02-17T04:15:43.219Z,101589.53
2023-02-17T04:18:45.226Z,101586.63
2023-02-17T04:21:47.528Z,101589.00
2023-02-17T04:24:49.665Z,101587.84
2023-02-17T04:27:51.815Z,101585.16
2023-02-17T04:30:54.005Z,101588.03
2023-02-17T04:33:56.084Z,101595.56
2023-02-17T04:36:58.217Z,101593.97
2023-02-17T04:40:00.247Z,101598.06
2023-02-17T04:43:02.503Z,101599.56
2023-02-17T04:46:05.337Z,101588.13
2023-02-17T04:49:07.617Z,101597.50
2023-02-17T04:52:10.069Z,101597.81
2023-02-17T04:55:12.208Z,101581.81
2023-02-17T04:58:14.306Z,101601.06
2023-02-17T05:01:16.468Z,101598.50
2023-02-17T05:04:19.367Z,101595.09
2023-02-17T05:07:21.751Z,101605.47
2023-02-17T05:10:24.184Z,101606.41
2023-02-17T05:13:27.666Z,101610.97
2023-02-17T05:16:29.586Z,101606.91
2023-02-17T05:19:31.703Z,101620.38
2023-02-17T05:22:33.677Z,101601.53
2023-02-17T05:25:35.753Z,101600.38
2023-02-17T05:28:38.111Z,101621.47
2023-02-17T05:31:40.365Z,101612.81
2023-02-17T05:34:42.704Z,101611.81
2023-02-17T05:37:44.862Z,101627.56
2023-02-17T05:40:46.936Z,101626.94
2023-02-17T05:43:49.047Z,101593.94
2023-02-17T05:46:51.133Z,101641.72
2023-02-17T05:49:53.073Z,101623.44
2023-02-17T05:52:55.084Z,101625.72
2023-02-17T05:55:57.290Z,101614.09
2023-02-17T05:59:00.626Z,101624.91
2023-02-17T06:02:02.664Z,101622.53
2023-02-17T06:05:04.900Z,101618.16
2023-02-17T06:08:07.244Z,101622.63
2023-02-17T06:11:09.351Z,101610.91
2023-02-17T06:14:11.399Z,101630.16
2023-02-17T06:17:13.418Z,101627.13
2023-02-17T06:20:16.021Z,101624.91
2023-02-17T06:23:18.142Z,101633.38
2023-02-17T06:26:20.250Z,101632.00
2023-02-17T06:29:22.313Z,101641.81
2023-02-17T06:32:24.396Z,101625.94
2023-02-17T06:35:28.248Z,101635.41
2023-02-17T06:38:30.413Z,101630.84
2023-02-17T06:41:32.704Z,101647.97
2023-02-17T06:44:34.780Z,101648.44
2023-02-17T06:47:37.720Z,101611.94
2023-02-17T06:50:39.872Z,101630.88
2023-02-17T06:53:42.028Z,101635.75
2023-02-17T06:56:44.205Z,101655.38
2023-02-17T06:59:46.554Z,101642.56
2023-02-17T07:02:48.743Z,101655.09
2023-02-17T07:05:51.519Z,101640.69
2023-02-17T07:08:54.585Z,101661.50
2023-02-17T07:11:57.796Z,101652.63
2023-02-17T07:15:00.094Z,101655.88
2023-02-17T07:18:03.356Z,101663.84
2023-02-17T07:21:07.224Z,101649.47
2023-02-17T07:24:09.310Z,101656.38
2023-02-17T07:27:11.458Z,101653.03
2023-02-17T07:30:14.088Z,101657.41
2023-02-17T07:33:16.321Z,101655.22
2023-02-17T07:36:18.746Z,101659.22
2023-02-17T07:39:20.812Z,101661.47
2023-02-17T07:42:24.181Z,101655.88
2023-02-17T07:45:27.363Z,101660.13
2023-02-17T07:48:29.408Z,101645.69
2023-02-17T07:51:31.645Z,101655.88
2023-02-17T07:54:33.693Z,101656.06
2023-02-17T07:57:36.112Z,101643.88
2023-02-17T08:00:41.598Z,101660.78
2023-02-17T08:03:43.817Z,101649.78
2023-02-17T08:06:46.893Z,101646.06
2023-02-17T08:10:07.660Z,101670.75
2023-02-17T08:13:20.331Z,101664.50
2023-02-17T08:16:22.357Z,101669.78
2023-02-17T08:19:28.337Z,101671.66
2023-02-17T08:22:31.933Z,101669.63
2023-02-17T08:25:35.278Z,101672.34
2023-02-17T08:28:37.445Z,101669.28
2023-02-17T08:31:39.644Z,101659.97
2023-02-17T08:34:41.799Z,101656.25
2023-02-17T08:37:43.829Z,101649.19
2023-02-17T08:40:45.879Z,101648.16
2023-02-17T08:43:48.940Z,101651.38
2023-02-17T08:46:52.560Z,101640.38
2023-02-17T08:49:55.110Z,101648.31
2023-02-17T08:52:57.199Z,101644.28
2023-02-17T08:55:59.242Z,101645.19
2023-02-17T08:59:03.398Z,101634.78
2023-02-17T09:02:06.778Z,101630.59
2023-02-17T09:05:08.986Z,101635.81
2023-02-17T09:08:11.194Z,101631.16
2023-02-17T09:11:15.574Z,101621.25
2023-02-17T09:14:17.738Z,101627.91
2023-02-17T09:17:19.845Z,101611.53
2023-02-17T09:20:25.022Z,101613.34
2023-02-17T09:23:27.334Z,101614.09
2023-02-17T09:26:29.356Z,101616.63
2023-02-17T09:29:31.654Z,101612.66
2023-02-17T09:32:33.783Z,101607.06
2023-02-17T09:35:37.803Z,101606.19
2023-02-17T09:38:42.062Z,101578.66
2023-02-17T09:41:52.147Z,101588.34
2023-02-17T09:45:05.013Z,101603.84
2023-02-17T09:48:11.952Z,101599.84
2023-02-17T09:51:28.636Z,101592.75
2023-02-17T09:55:00.508Z,101589.91
2023-02-17T09:58:08.451Z,101579.09
2023-02-17T10:01:20.395Z,101591.31
2023-02-17T10:04:41.492Z,101585.34
2023-02-17T10:07:53.506Z,101580.19
2023-02-17T10:11:04.749Z,101581.47
2023-02-17T10:14:17.707Z,101564.97
2023-02-17T10:17:48.608Z,101572.25
2023-02-17T10:21:19.609Z,101560.47
2023-02-17T10:24:21.747Z,101560.16
2023-02-17T10:27:43.360Z,101560.09
2023-02-17T10:30:59.953Z,101554.66
2023-02-17T10:34:12.923Z,101552.47
2023-02-17T10:37:25.161Z,101542.63
2023-02-17T10:40:29.227Z,101543.00
2023-02-17T10:43:33.752Z,101545.53
2023-02-17T10:46:35.977Z,101524.03
2023-02-17T10:49:49.861Z,101540.63
2023-02-17T10:52:53.173Z,101525.41
2023-02-17T10:56:18.675Z,101521.09
2023-02-17T10:59:39.031Z,101530.53
2023-02-17T11:02:46.626Z,101522.28
2023-02-17T11:06:07.201Z,101527.84
2023-02-17T11:09:28.779Z,101500.06
2023-02-17T11:12:40.565Z,101512.34
2023-02-17T11:15:47.948Z,101512.47
2023-02-17T11:18:50.564Z,101488.06
2023-02-17T11:21:54.412Z,101502.13
2023-02-17T11:25:02.088Z,101512.94
2023-02-17T11:28:24.000Z,101501.88
2023-02-17T11:31:29.684Z,101513.72
2023-02-17T11:34:36.257Z,101484.66
2023-02-17T11:37:42.832Z,101492.81
2023-02-17T11:41:02.447Z,101488.59
2023-02-17T11:44:04.693Z,101484.19
2023-02-17T11:47:12.872Z,101472.56
2023-02-17T11:50:41.790Z,101492.25
2023-02-17T11:53:52.462Z,101485.50
2023-02-17T11:57:06.594Z,101484.94
2023-02-17T12:00:59.368Z,101478.13
2023-02-17T12:04:10.797Z,101483.00
2023-02-17T12:07:40.238Z,101475.38
2023-02-17T12:11:13.381Z,101462.09
2023-02-17T12:14:43.735Z,101471.81
2023-02-17T12:17:56.603Z,101459.53
2023-02-17T12:21:12.254Z,101469.72
2023-02-17T12:24:49.633Z,101472.28
2023-02-17T12:28:10.683Z,101478.09
2023-02-17T12:31:42.747Z,101469.66
2023-02-17T12:34:53.259Z,101460.72
2023-02-17T12:38:09.724Z,101473.69
2023-02-17T12:41:31.045Z,101465.81
2023-02-17T12:44:41.554Z,101462.41
2023-02-17T12:48:06.938Z,101457.44
2023-02-17T12:51:23.378Z,101456.91
2023-02-17T12:55:04.807Z,101458.03
2023-02-17T12:58:16.140Z,101462.53
2023-02-17T13:01:22.921Z,101459.06
2023-02-17T13:04:29.187Z,101449.50
2023-02-17T13:07:49.940Z,101444.53
2023-02-17T13:11:05.907Z,101450.34
2023-02-17T13:14:47.313Z,101453.78
2023-02-17T13:18:03.199Z,101444.16
2023-02-17T13:21:24.917Z,101450.63
2023-02-17T13:24:36.860Z,101439.56
2023-02-17T13:27:40.493Z,101436.16
2023-02-17T13:30:45.346Z,101447.59
2023-02-17T13:33:49.409Z,101449.59
2023-02-17T13:36:51.876Z,101440.00
2023-02-17T13:39:54.310Z,101444.06
2023-02-17T13:42:59.506Z,101442.28
2023-02-17T13:46:04.226Z,101442.06
2023-02-17T13:49:06.966Z,101440.66
2023-02-17T13:52:22.948Z,101438.66
2023-02-17T13:55:25.134Z,101407.09
2023-02-17T13:58:32.644Z,101437.66
2023-02-17T14:01:38.345Z,101425.97
2023-02-17T14:04:40.436Z,101422.69
2023-02-17T14:07:42.568Z,101415.38
2023-02-17T14:10:45.180Z,101409.84
2023-02-17T14:13:49.798Z,101413.50
2023-02-17T14:16:59.567Z,101413.88
2023-02-17T14:20:01.803Z,101411.81
2023-02-17T14:23:12.846Z,101419.38
2023-02-17T14:26:30.719Z,101423.97
2023-02-17T14:29:44.564Z,101418.44
2023-02-17T14:32:46.613Z,101413.19
2023-02-17T14:36:04.531Z,101417.13
2023-02-17T14:39:09.320Z,101410.75
2023-02-17T14:42:11.286Z,101400.44
2023-02-17T14:45:15.404Z,101402.13
2023-02-17T14:48:18.020Z,101401.84
2023-02-17T14:51:23.534Z,101406.59
2023-02-17T14:54:27.108Z,101401.38
2023-02-17T14:57:30.947Z,101401.09
2023-02-17T15:00:33.033Z,101415.66
2023-02-17T15:03:35.061Z,101401.13
2023-02-17T15:06:41.740Z,101406.56
2023-02-17T15:09:49.110Z,101397.09
2023-02-17T15:12:51.731Z,101409.63
2023-02-17T15:15:53.937Z,101408.50
2023-02-17T15:18:56.003Z,101404.28
2023-02-17T15:22:01.398Z,101399.06
2023-02-17T15:25:03.326Z,101402.19
2023-02-17T15:28:06.162Z,101417.63
2023-02-17T15:31:13.186Z,101416.59
2023-02-17T15:34:22.590Z,101423.19
2023-02-17T15:37:24.544Z,101412.53
2023-02-17T15:40:28.433Z,101418.78
2023-02-17T15:46:42.252Z,101414.84
2023-02-17T15:49:44.955Z,101418.75
2023-02-17T15:52:47.423Z,101432.63
2023-02-17T15:55:50.151Z,101424.44
2023-02-17T15:58:53.341Z,101420.19
2023-02-17T16:02:01.360Z,101415.63
2023-02-17T16:05:03.531Z,101424.09
2023-02-17T16:08:06.398Z,101418.81
2023-02-17T16:11:12.682Z,101399.69
2023-02-17T16:14:28.492Z,101400.00
2023-02-17T16:17:30.628Z,101415.16
2023-02-17T16:20:34.866Z,101407.03
2023-02-17T16:23:37.250Z,101404.44
2023-02-17T16:26:40.132Z,101417.66
2023-02-17T16:29:42.976Z,101408.00
2023-02-17T16:32:45.471Z,101402.28
2023-02-17T16:35:50.526Z,101409.25
2023-02-17T16:38:52.550Z,101379.84
2023-02-17T16:41:54.465Z,101397.56
2023-02-17T16:44:56.413Z,101404.09
2023-02-17T16:48:01.085Z,101402.34
2023-02-17T16:51:03.005Z,101406.69
2023-02-17T16:54:05.173Z,101412.09
2023-02-17T16:57:07.200Z,101397.69
2023-02-17T17:00:12.958Z,101391.06
2023-02-17T17:03:15.098Z,101395.78
2023-02-17T17:06:19.926Z,101403.69
2023-02-17T17:09:24.629Z,101403.63
2023-02-17T17:12:26.700Z,101403.16
2023-02-17T17:15:29.681Z,101378.28
2023-02-17T17:18:36.251Z,101377.00
2023-02-17T17:21:38.372Z,101391.97
2023-02-17T17:24:40.560Z,101386.16
2023-02-17T17:27:42.488Z,101383.63
2023-02-17T17:30:45.276Z,101370.66
2023-02-17T17:33:48.837Z,101382.94
2023-02-17T17:36:51.135Z,101383.06
2023-02-17T17:39:53.059Z,101384.72
2023-02-17T17:42:56.467Z,101366.06
2023-02-17T17:45:58.939Z,101375.69
2023-02-17T17:49:01.556Z,101361.13
2023-02-17T17:52:05.145Z,101365.34
2023-02-17T17:55:09.653Z,101358.59
2023-02-17T17:58:16.504Z,101334.41
2023-02-17T18:01:24.108Z,101360.03
2023-02-17T18:04:30.178Z,101353.97
2023-02-17T18:07:38.023Z,101353.19
2023-02-17T18:10:42.790Z,101338.06
2023-02-17T18:13:52.760Z,101337.06
2023-02-17T18:16:58.424Z,101323.53
2023-02-17T18:20:02.040Z,101329.63
2023-02-17T18:23:04.445Z,101325.22
2023-02-17T18:26:07.244Z,101318.50
2023-02-17T18:29:13.964Z,101305.16
2023-02-17T18:32:16.214Z,101318.97
2023-02-17T18:35:19.296Z,101308.47
2023-02-17T18:38:21.444Z,101318.69
2023-02-17T18:41:28.066Z,101302.94
2023-02-17T18:44:30.141Z,101300.19
2023-02-17T18:47:32.164Z,101309.75
2023-02-17T18:50:36.302Z,101314.28
2023-02-17T18:53:38.739Z,101307.00
2023-02-17T18:56:41.737Z,101309.41
2023-02-17T18:59:44.469Z,101288.78
2023-02-17T19:02:46.915Z,101294.19
2023-02-17T19:05:50.014Z,101290.13
2023-02-17T19:08:52.819Z,101296.75
2023-02-17T19:11:55.466Z,101285.91
2023-02-17T19:14:58.273Z,101278.22
2023-02-17T19:18:00.684Z,101291.28
2023-02-17T19:21:03.660Z,101294.44
2023-02-17T19:24:10.070Z,101277.03
2023-02-17T19:27:13.172Z,101288.78
2023-02-17T19:30:20.097Z,101283.38
2023-02-17T19:33:23.347Z,101286.00
2023-02-17T19:36:26.878Z,101267.84
2023-02-17T19:39:28.961Z,101229.22
2023-02-17T19:42:31.973Z,101247.06
2023-02-17T19:45:34.242Z,101245.16
2023-02-17T19:48:38.352Z,101237.66
2023-02-17T19:51:42.338Z,101228.31
2023-02-17T19:54:44.756Z,101254.19
2023-02-17T19:57:50.258Z,101223.81
2023-02-17T20:00:55.344Z,101221.28
2023-02-17T20:04:02.413Z,101226.22
2023-02-17T20:07:05.403Z,101222.97
2023-02-17T20:10:11.878Z,101219.16
2023-02-17T20:13:14.395Z,101211.31
2023-02-17T20:16:20.041Z,101214.69
2023-02-17T20:19:22.426Z,101206.44
2023-02-17T20:22:29.629Z,101187.75
2023-02-17T20:25:32.162Z,101176.59
2023-02-17T20:28:34.441Z,101177.25
2023-02-17T20:31:38.205Z,101174.09
2023-02-17T20:34:43.788Z,101177.13
2023-02-17T20:37:45.777Z,101169.28
2023-02-17T20:40:47.825Z,101162.31
2023-02-17T20:43:51.014Z,101156.03
2023-02-17T20:46:53.896Z,101167.78
2023-02-17T20:49:56.373Z,101166.50
2023-02-17T20:52:59.326Z,101153.34
2023-02-17T20:56:02.787Z,101161.00
2023-02-17T20:59:06.369Z,101158.66
2023-02-17T21:02:12.592Z,101144.56
2023-02-17T21:05:14.870Z,101133.72
2023-02-17T21:08:17.022Z,101143.25
2023-02-17T21:11:19.265Z,101142.66
2023-02-17T21:14:21.421Z,101134.31
2023-02-17T21:17:24.494Z,101128.69
2023-02-17T21:20:26.526Z,101124.75
2023-02-17T21:23:28.910Z,101123.69
2023-02-17T21:26:34.858Z,101111.00
2023-02-17T21:29:37.339Z,101109.78
2023-02-17T21:32:39.494Z,101114.47
2023-02-17T21:35:44.443Z,101098.00
2023-02-17T21:38:47.747Z,101092.72
2023-02-17T21:41:51.541Z,101089.44
2023-02-17T21:44:56.898Z,101045.28
2023-02-17T21:48:01.072Z,101056.88
2023-02-17T21:51:10.009Z,101056.72
2023-02-17T21:54:12.595Z,101058.59
2023-02-17T21:57:14.834Z,101068.44
2023-02-17T22:00:17.412Z,101049.97
2023-02-17T22:03:19.563Z,101058.63
2023-02-17T22:06:30.199Z,101051.66
2023-02-17T22:09:32.269Z,101053.31
2023-02-17T22:12:37.519Z,101053.69
2023-02-17T22:15:40.319Z,101044.03
2023-02-17T22:18:55.847Z,100996.53
2023-02-17T22:22:07.319Z,101039.69
2023-02-17T22:25:10.605Z,100983.28
2023-02-17T22:28:17.343Z,101040.28
2023-02-17T22:31:22.691Z,101022.84
2023-02-17T22:34:26.237Z,101012.94
2023-02-17T22:37:28.421Z,101018.56
2023-02-17T22:40:31.964Z,101006.63
2023-02-17T22:43:40.631Z,101003.34
2023-02-17T22:46:43.857Z,101008.84
2023-02-17T22:49:46.170Z,101009.50
2023-02-17T22:52:48.405Z,101005.91
2023-02-17T22:55:58.183Z,100986.66
2023-02-17T22:59:03.908Z,100988.50
2023-02-17T23:02:05.946Z,100989.28
2023-02-17T23:05:08.393Z,100980.47
2023-02-17T23:08:11.322Z,100990.31
2023-02-17T23:11:16.304Z,100978.75
2023-02-17T23:14:20.065Z,100972.44
2023-02-17T23:17:22.398Z,100966.94
2023-02-17T23:20:25.379Z,100975.97
2023-02-17T23:23:27.432Z,100965.03
2023-02-17T23:26:29.715Z,100966.72
2023-02-17T23:29:32.751Z,100964.81
2023-02-17T23:32:36.060Z,100979.44
2023-02-17T23:35:44.896Z,100966.69
2023-02-17T23:38:47.200Z,100977.50
2023-02-17T23:41:49.318Z,100963.03
2023-02-17T23:44:51.271Z,100938.03
2023-02-17T23:47:53.364Z,100947.06
2023-02-17T23:51:00.233Z,100949.91
2023-02-17T23:54:02.342Z,100938.59
2023-02-17T23:57:04.590Z,100938.41
